sensor_id;sensor_type;location;lat;lon;timestamp;temperature;humidity
20370;DHT22;10344;47.592;9.600;2022-07-18T00:00:24;18.90;92.90
20370;DHT22;10344;47.592;9.600;2022-07-18T00:02:50;19.00;91.20
20370;DHT22;10344;47.592;9.600;2022-07-18T00:05:15;18.90;91.70
20370;DHT22;10344;47.592;9.600;2022-07-18T00:07:41;18.90;91.40
20370;DHT22;10344;47.592;9.600;2022-07-18T00:10:06;18.70;91.50
20370;DHT22;10344;47.592;9.600;2022-07-18T00:12:32;18.60;92.40
20370;DHT22;10344;47.592;9.600;2022-07-18T00:14:57;18.50;91.80
20370;DHT22;10344;47.592;9.600;2022-07-18T00:17:23;18.50;91.90
20370;DHT22;10344;47.592;9.600;2022-07-18T00:19:48;18.40;92.70
20370;DHT22;10344;47.592;9.600;2022-07-18T00:22:14;18.30;93.00
20370;DHT22;10344;47.592;9.600;2022-07-18T00:24:43;18.30;93.60
20370;DHT22;10344;47.592;9.600;2022-07-18T00:27:09;18.30;93.80
20370;DHT22;10344;47.592;9.600;2022-07-18T00:29:37;18.20;93.60
20370;DHT22;10344;47.592;9.600;2022-07-18T00:32:05;18.30;93.00
20370;DHT22;10344;47.592;9.600;2022-07-18T00:34:30;18.20;93.40
20370;DHT22;10344;47.592;9.600;2022-07-18T00:36:56;18.10;93.70
20370;DHT22;10344;47.592;9.600;2022-07-18T00:39:23;18.10;93.90
20370;DHT22;10344;47.592;9.600;2022-07-18T00:41:49;18.10;94.30
20370;DHT22;10344;47.592;9.600;2022-07-18T00:44:22;18.00;94.60
20370;DHT22;10344;47.592;9.600;2022-07-18T00:46:54;18.00;94.90
20370;DHT22;10344;47.592;9.600;2022-07-18T00:49:20;17.90;94.80
20370;DHT22;10344;47.592;9.600;2022-07-18T00:51:46;17.90;95.50
20370;DHT22;10344;47.592;9.600;2022-07-18T00:54:11;17.80;95.30
20370;DHT22;10344;47.592;9.600;2022-07-18T00:56:39;17.90;95.70
20370;DHT22;10344;47.592;9.600;2022-07-18T00:59:05;17.80;95.80
20370;DHT22;10344;47.592;9.600;2022-07-18T01:01:31;17.80;95.60
20370;DHT22;10344;47.592;9.600;2022-07-18T01:04:09;17.70;96.10
20370;DHT22;10344;47.592;9.600;2022-07-18T01:06:35;17.60;96.30
20370;DHT22;10344;47.592;9.600;2022-07-18T01:09:01;17.50;96.90
20370;DHT22;10344;47.592;9.600;2022-07-18T01:11:27;17.50;97.10
20370;DHT22;10344;47.592;9.600;2022-07-18T01:13:53;17.50;97.70
20370;DHT22;10344;47.592;9.600;2022-07-18T01:16:18;17.40;98.40
20370;DHT22;10344;47.592;9.600;2022-07-18T01:18:45;17.40;98.60
20370;DHT22;10344;47.592;9.600;2022-07-18T01:21:10;17.40;99.30
20370;DHT22;10344;47.592;9.600;2022-07-18T01:23:36;17.30;99.70
20370;DHT22;10344;47.592;9.600;2022-07-18T01:26:01;17.30;99.90
20370;DHT22;10344;47.592;9.600;2022-07-18T01:28:27;17.20;99.80
20370;DHT22;10344;47.592;9.600;2022-07-18T01:30:52;17.20;99.90
20370;DHT22;10344;47.592;9.600;2022-07-18T01:33:18;17.10;99.90
20370;DHT22;10344;47.592;9.600;2022-07-18T01:35:43;16.90;99.90
20370;DHT22;10344;47.592;9.600;2022-07-18T01:38:09;16.90;99.90
20370;DHT22;10344;47.592;9.600;2022-07-18T01:40:35;16.90;99.90
20370;DHT22;10344;47.592;9.600;2022-07-18T01:43:02;17.00;99.90
20370;DHT22;10344;47.592;9.600;2022-07-18T01:45:28;17.00;99.90
20370;DHT22;10344;47.592;9.600;2022-07-18T01:47:53;17.10;99.90
20370;DHT22;10344;47.592;9.600;2022-07-18T01:50:19;17.10;99.90
20370;DHT22;10344;47.592;9.600;2022-07-18T01:52:44;17.10;99.90
20370;DHT22;10344;47.592;9.600;2022-07-18T01:55:10;17.10;99.90
20370;DHT22;10344;47.592;9.600;2022-07-18T01:57:38;17.10;99.90
20370;DHT22;10344;47.592;9.600;2022-07-18T02:00:05;17.10;99.90
20370;DHT22;10344;47.592;9.600;2022-07-18T02:02:31;17.10;99.90
20370;DHT22;10344;47.592;9.600;2022-07-18T02:04:56;17.00;99.90
20370;DHT22;10344;47.592;9.600;2022-07-18T02:07:25;16.90;99.90
20370;DHT22;10344;47.592;9.600;2022-07-18T02:09:50;16.70;99.90
20370;DHT22;10344;47.592;9.600;2022-07-18T02:12:16;16.60;99.90
20370;DHT22;10344;47.592;9.600;2022-07-18T02:14:41;16.60;99.90
20370;DHT22;10344;47.592;9.600;2022-07-18T02:17:07;16.60;99.90
20370;DHT22;10344;47.592;9.600;2022-07-18T02:19:32;16.60;99.90
20370;DHT22;10344;47.592;9.600;2022-07-18T02:21:58;16.50;99.90
20370;DHT22;10344;47.592;9.600;2022-07-18T02:24:23;16.50;99.90
20370;DHT22;10344;47.592;9.600;2022-07-18T02:26:49;16.60;99.90
20370;DHT22;10344;47.592;9.600;2022-07-18T02:29:14;16.60;99.90
20370;DHT22;10344;47.592;9.600;2022-07-18T02:31:40;16.60;99.90
20370;DHT22;10344;47.592;9.600;2022-07-18T02:34:05;16.50;99.90
20370;DHT22;10344;47.592;9.600;2022-07-18T02:36:38;16.60;99.90
20370;DHT22;10344;47.592;9.600;2022-07-18T02:39:05;16.50;99.90
20370;DHT22;10344;47.592;9.600;2022-07-18T02:41:33;16.30;99.90
20370;DHT22;10344;47.592;9.600;2022-07-18T02:43:59;16.20;99.90
20370;DHT22;10344;47.592;9.600;2022-07-18T02:46:25;16.20;99.90
20370;DHT22;10344;47.592;9.600;2022-07-18T02:48:50;16.20;99.90
20370;DHT22;10344;47.592;9.600;2022-07-18T02:51:16;16.10;99.90
20370;DHT22;10344;47.592;9.600;2022-07-18T02:53:41;16.10;99.90
20370;DHT22;10344;47.592;9.600;2022-07-18T02:56:07;16.10;99.90
20370;DHT22;10344;47.592;9.600;2022-07-18T02:58:32;16.20;99.90
20370;DHT22;10344;47.592;9.600;2022-07-18T03:00:58;16.10;99.90
20370;DHT22;10344;47.592;9.600;2022-07-18T03:03:24;16.10;99.90
20370;DHT22;10344;47.592;9.600;2022-07-18T03:05:49;16.10;99.90
20370;DHT22;10344;47.592;9.600;2022-07-18T03:08:15;16.10;99.90
20370;DHT22;10344;47.592;9.600;2022-07-18T03:10:40;16.10;99.90
20370;DHT22;10344;47.592;9.600;2022-07-18T03:13:06;16.10;99.90
20370;DHT22;10344;47.592;9.600;2022-07-18T03:15:32;16.20;99.90
20370;DHT22;10344;47.592;9.600;2022-07-18T03:17:57;16.30;99.90
20370;DHT22;10344;47.592;9.600;2022-07-18T03:20:23;16.20;99.90
20370;DHT22;10344;47.592;9.600;2022-07-18T03:22:48;16.20;99.90
20370;DHT22;10344;47.592;9.600;2022-07-18T03:25:14;16.20;99.90
20370;DHT22;10344;47.592;9.600;2022-07-18T03:27:39;16.10;99.90
20370;DHT22;10344;47.592;9.600;2022-07-18T03:30:06;16.10;99.90
20370;DHT22;10344;47.592;9.600;2022-07-18T03:35:35;16.10;99.90
20370;DHT22;10344;47.592;9.600;2022-07-18T03:38:01;16.10;99.90
20370;DHT22;10344;47.592;9.600;2022-07-18T03:40:26;16.10;99.90
20370;DHT22;10344;47.592;9.600;2022-07-18T03:42:52;16.10;99.90
20370;DHT22;10344;47.592;9.600;2022-07-18T03:45:19;16.00;99.90
20370;DHT22;10344;47.592;9.600;2022-07-18T03:47:45;16.00;99.90
20370;DHT22;10344;47.592;9.600;2022-07-18T03:50:10;16.00;99.90
20370;DHT22;10344;47.592;9.600;2022-07-18T03:52:36;15.90;99.90
20370;DHT22;10344;47.592;9.600;2022-07-18T03:55:02;15.90;99.90
20370;DHT22;10344;47.592;9.600;2022-07-18T03:57:28;15.90;99.90
20370;DHT22;10344;47.592;9.600;2022-07-18T03:59:54;15.80;99.90
20370;DHT22;10344;47.592;9.600;2022-07-18T04:02:19;15.90;99.90
20370;DHT22;10344;47.592;9.600;2022-07-18T04:04:45;15.80;99.90
20370;DHT22;10344;47.592;9.600;2022-07-18T04:07:10;15.80;99.90
20370;DHT22;10344;47.592;9.600;2022-07-18T04:09:36;15.70;99.90
20370;DHT22;10344;47.592;9.600;2022-07-18T04:12:02;15.70;99.90
20370;DHT22;10344;47.592;9.600;2022-07-18T04:14:27;15.60;99.90
20370;DHT22;10344;47.592;9.600;2022-07-18T04:16:53;15.60;99.90
20370;DHT22;10344;47.592;9.600;2022-07-18T04:19:18;15.60;99.90
20370;DHT22;10344;47.592;9.600;2022-07-18T04:21:44;15.70;99.90
20370;DHT22;10344;47.592;9.600;2022-07-18T04:24:09;15.70;99.90
20370;DHT22;10344;47.592;9.600;2022-07-18T04:26:35;15.80;99.90
20370;DHT22;10344;47.592;9.600;2022-07-18T04:29:03;15.80;99.90
20370;DHT22;10344;47.592;9.600;2022-07-18T04:31:29;15.80;99.90
20370;DHT22;10344;47.592;9.600;2022-07-18T04:33:54;15.70;99.90
20370;DHT22;10344;47.592;9.600;2022-07-18T04:36:20;15.60;99.90
20370;DHT22;10344;47.592;9.600;2022-07-18T04:38:46;15.60;99.90
20370;DHT22;10344;47.592;9.600;2022-07-18T04:41:11;15.70;99.90
20370;DHT22;10344;47.592;9.600;2022-07-18T04:43:37;15.70;99.90
20370;DHT22;10344;47.592;9.600;2022-07-18T04:46:02;15.80;99.90
20370;DHT22;10344;47.592;9.600;2022-07-18T04:48:28;15.80;99.90
20370;DHT22;10344;47.592;9.600;2022-07-18T04:50:56;15.80;99.90
20370;DHT22;10344;47.592;9.600;2022-07-18T04:53:21;15.90;99.90
20370;DHT22;10344;47.592;9.600;2022-07-18T04:55:47;15.90;99.90
20370;DHT22;10344;47.592;9.600;2022-07-18T04:58:12;16.00;99.90
20370;DHT22;10344;47.592;9.600;2022-07-18T05:00:40;16.10;99.90
20370;DHT22;10344;47.592;9.600;2022-07-18T05:03:06;16.20;99.90
20370;DHT22;10344;47.592;9.600;2022-07-18T05:05:34;16.10;99.90
20370;DHT22;10344;47.592;9.600;2022-07-18T05:07:59;16.20;99.90
20370;DHT22;10344;47.592;9.600;2022-07-18T05:10:25;16.30;99.90
20370;DHT22;10344;47.592;9.600;2022-07-18T05:12:51;16.30;99.90
20370;DHT22;10344;47.592;9.600;2022-07-18T05:15:18;16.40;99.90
20370;DHT22;10344;47.592;9.600;2022-07-18T05:17:44;16.40;99.90
20370;DHT22;10344;47.592;9.600;2022-07-18T05:20:10;16.50;99.90
20370;DHT22;10344;47.592;9.600;2022-07-18T05:22:36;16.50;99.90
20370;DHT22;10344;47.592;9.600;2022-07-18T05:25:05;16.60;99.90
20370;DHT22;10344;47.592;9.600;2022-07-18T05:27:31;16.60;99.90
20370;DHT22;10344;47.592;9.600;2022-07-18T05:29:57;16.70;99.90
20370;DHT22;10344;47.592;9.600;2022-07-18T05:32:24;16.80;99.90
20370;DHT22;10344;47.592;9.600;2022-07-18T05:34:50;16.90;99.90
20370;DHT22;10344;47.592;9.600;2022-07-18T05:37:15;16.90;99.90
20370;DHT22;10344;47.592;9.600;2022-07-18T05:39:41;17.00;99.90
20370;DHT22;10344;47.592;9.600;2022-07-18T05:42:09;17.10;99.90
20370;DHT22;10344;47.592;9.600;2022-07-18T05:44:35;17.20;99.90
20370;DHT22;10344;47.592;9.600;2022-07-18T05:47:00;17.20;99.90
20370;DHT22;10344;47.592;9.600;2022-07-18T05:49:26;17.30;99.90
20370;DHT22;10344;47.592;9.600;2022-07-18T05:51:51;17.40;99.90
20370;DHT22;10344;47.592;9.600;2022-07-18T05:54:17;17.50;99.90
20370;DHT22;10344;47.592;9.600;2022-07-18T05:56:50;17.70;99.90
20370;DHT22;10344;47.592;9.600;2022-07-18T05:59:16;17.90;99.90
20370;DHT22;10344;47.592;9.600;2022-07-18T06:01:42;18.10;99.90
20370;DHT22;10344;47.592;9.600;2022-07-18T06:04:08;18.30;99.90
20370;DHT22;10344;47.592;9.600;2022-07-18T06:06:34;18.40;99.90
20370;DHT22;10344;47.592;9.600;2022-07-18T06:09:00;18.50;99.90
20370;DHT22;10344;47.592;9.600;2022-07-18T06:11:25;18.60;99.90
20370;DHT22;10344;47.592;9.600;2022-07-18T06:13:51;18.70;99.90
20370;DHT22;10344;47.592;9.600;2022-07-18T06:16:16;18.80;99.90
20370;DHT22;10344;47.592;9.600;2022-07-18T06:18:42;18.80;99.90
20370;DHT22;10344;47.592;9.600;2022-07-18T06:21:10;19.10;99.90
20370;DHT22;10344;47.592;9.600;2022-07-18T06:23:35;19.30;99.90
20370;DHT22;10344;47.592;9.600;2022-07-18T06:26:01;19.40;99.90
20370;DHT22;10344;47.592;9.600;2022-07-18T06:28:27;19.50;99.90
20370;DHT22;10344;47.592;9.600;2022-07-18T06:30:53;19.70;99.90
20370;DHT22;10344;47.592;9.600;2022-07-18T06:33:22;19.90;99.90
20370;DHT22;10344;47.592;9.600;2022-07-18T06:35:47;20.00;99.90
20370;DHT22;10344;47.592;9.600;2022-07-18T06:38:14;20.10;99.90
20370;DHT22;10344;47.592;9.600;2022-07-18T06:40:39;20.20;99.90
20370;DHT22;10344;47.592;9.600;2022-07-18T06:43:05;20.30;99.90
20370;DHT22;10344;47.592;9.600;2022-07-18T06:45:31;20.50;99.90
20370;DHT22;10344;47.592;9.600;2022-07-18T06:47:57;20.60;99.90
20370;DHT22;10344;47.592;9.600;2022-07-18T06:50:23;20.60;99.90
20370;DHT22;10344;47.592;9.600;2022-07-18T06:52:48;20.80;99.90
20370;DHT22;10344;47.592;9.600;2022-07-18T06:55:14;21.00;99.90
20370;DHT22;10344;47.592;9.600;2022-07-18T06:57:41;21.60;99.90
20370;DHT22;10344;47.592;9.600;2022-07-18T07:00:07;22.40;99.90
20370;DHT22;10344;47.592;9.600;2022-07-18T07:02:34;23.50;99.90
20370;DHT22;10344;47.592;9.600;2022-07-18T07:05:00;24.60;99.90
20370;DHT22;10344;47.592;9.600;2022-07-18T07:07:25;25.40;99.90
20370;DHT22;10344;47.592;9.600;2022-07-18T07:09:51;26.50;99.90
20370;DHT22;10344;47.592;9.600;2022-07-18T07:12:16;27.40;99.90
20370;DHT22;10344;47.592;9.600;2022-07-18T07:14:42;28.30;99.60
20370;DHT22;10344;47.592;9.600;2022-07-18T07:17:07;28.40;98.20
20370;DHT22;10344;47.592;9.600;2022-07-18T07:19:33;28.20;98.70
20370;DHT22;10344;47.592;9.600;2022-07-18T07:21:58;28.90;97.40
20370;DHT22;10344;47.592;9.600;2022-07-18T07:24:25;29.80;96.00
20370;DHT22;10344;47.592;9.600;2022-07-18T07:26:50;30.80;94.70
20370;DHT22;10344;47.592;9.600;2022-07-18T07:29:16;31.10;93.00
20370;DHT22;10344;47.592;9.600;2022-07-18T07:31:41;30.70;92.90
20370;DHT22;10344;47.592;9.600;2022-07-18T07:34:08;30.90;93.10
20370;DHT22;10344;47.592;9.600;2022-07-18T07:36:33;30.90;92.00
20370;DHT22;10344;47.592;9.600;2022-07-18T07:38:59;30.40;92.50
20370;DHT22;10344;47.592;9.600;2022-07-18T07:41:25;29.90;92.20
20370;DHT22;10344;47.592;9.600;2022-07-18T07:43:53;30.40;92.30
20370;DHT22;10344;47.592;9.600;2022-07-18T07:46:18;30.80;91.80
20370;DHT22;10344;47.592;9.600;2022-07-18T07:48:44;30.90;90.70
20370;DHT22;10344;47.592;9.600;2022-07-18T07:51:13;30.50;91.40
20370;DHT22;10344;47.592;9.600;2022-07-18T07:53:38;31.00;91.20
20370;DHT22;10344;47.592;9.600;2022-07-18T07:56:04;31.30;90.40
20370;DHT22;10344;47.592;9.600;2022-07-18T07:58:30;31.50;91.10
20370;DHT22;10344;47.592;9.600;2022-07-18T08:00:55;31.90;91.10
20370;DHT22;10344;47.592;9.600;2022-07-18T08:03:21;32.20;90.40
20370;DHT22;10344;47.592;9.600;2022-07-18T08:05:50;31.70;89.70
20370;DHT22;10344;47.592;9.600;2022-07-18T08:08:18;30.40;91.30
20370;DHT22;10344;47.592;9.600;2022-07-18T08:10:44;30.40;90.80
20370;DHT22;10344;47.592;9.600;2022-07-18T08:13:10;30.10;93.40
20370;DHT22;10344;47.592;9.600;2022-07-18T08:15:36;30.10;92.10
20370;DHT22;10344;47.592;9.600;2022-07-18T08:18:04;30.10;91.60
20370;DHT22;10344;47.592;9.600;2022-07-18T08:20:30;30.20;90.80
20370;DHT22;10344;47.592;9.600;2022-07-18T08:22:59;30.20;90.90
20370;DHT22;10344;47.592;9.600;2022-07-18T08:25:26;30.20;92.50
20370;DHT22;10344;47.592;9.600;2022-07-18T08:27:51;30.70;91.30
20370;DHT22;10344;47.592;9.600;2022-07-18T08:30:18;30.90;91.10
20370;DHT22;10344;47.592;9.600;2022-07-18T08:32:46;30.60;91.10
20370;DHT22;10344;47.592;9.600;2022-07-18T08:35:12;30.40;93.10
20370;DHT22;10344;47.592;9.600;2022-07-18T08:37:38;30.90;91.10
20370;DHT22;10344;47.592;9.600;2022-07-18T08:40:06;30.90;89.30
20370;DHT22;10344;47.592;9.600;2022-07-18T08:42:32;30.10;90.80
20370;DHT22;10344;47.592;9.600;2022-07-18T08:44:58;30.20;92.90
20370;DHT22;10344;47.592;9.600;2022-07-18T08:47:23;30.80;91.20
20370;DHT22;10344;47.592;9.600;2022-07-18T08:49:50;30.70;91.20
20370;DHT22;10344;47.592;9.600;2022-07-18T08:52:16;30.30;91.70
20370;DHT22;10344;47.592;9.600;2022-07-18T08:54:44;30.60;93.20
20370;DHT22;10344;47.592;9.600;2022-07-18T08:57:10;30.80;92.00
20370;DHT22;10344;47.592;9.600;2022-07-18T08:59:35;30.80;91.00
20370;DHT22;10344;47.592;9.600;2022-07-18T09:02:01;31.00;92.90
20370;DHT22;10344;47.592;9.600;2022-07-18T09:06:58;31.20;90.50
20370;DHT22;10344;47.592;9.600;2022-07-18T09:09:24;30.30;92.40
20370;DHT22;10344;47.592;9.600;2022-07-18T09:11:57;30.20;93.90
20370;DHT22;10344;47.592;9.600;2022-07-18T09:14:29;30.80;93.20
20370;DHT22;10344;47.592;9.600;2022-07-18T09:19:27;31.90;92.40
20370;DHT22;10344;47.592;9.600;2022-07-18T09:21:52;31.30;91.40
20370;DHT22;10344;47.592;9.600;2022-07-18T09:24:18;30.50;93.60
20370;DHT22;10344;47.592;9.600;2022-07-18T09:26:43;30.10;93.00
20370;DHT22;10344;47.592;9.600;2022-07-18T09:29:15;29.60;94.10
20370;DHT22;10344;47.592;9.600;2022-07-18T09:31:45;29.10;94.10
20370;DHT22;10344;47.592;9.600;2022-07-18T09:34:13;28.60;95.80
20370;DHT22;10344;47.592;9.600;2022-07-18T09:36:53;28.30;97.30
20370;DHT22;10344;47.592;9.600;2022-07-18T09:39:19;29.10;96.80
20370;DHT22;10344;47.592;9.600;2022-07-18T09:41:45;29.90;96.40
20370;DHT22;10344;47.592;9.600;2022-07-18T09:44:14;30.60;95.60
20370;DHT22;10344;47.592;9.600;2022-07-18T09:47:02;31.10;94.30
20370;DHT22;10344;47.592;9.600;2022-07-18T09:49:31;31.40;92.30
20370;DHT22;10344;47.592;9.600;2022-07-18T09:52:04;30.30;93.40
20370;DHT22;10344;47.592;9.600;2022-07-18T09:54:41;29.90;95.20
20370;DHT22;10344;47.592;9.600;2022-07-18T09:57:06;29.40;94.60
20370;DHT22;10344;47.592;9.600;2022-07-18T09:59:32;28.80;95.30
20370;DHT22;10344;47.592;9.600;2022-07-18T10:01:59;28.40;94.80
20370;DHT22;10344;47.592;9.600;2022-07-18T10:04:25;28.40;97.80
20370;DHT22;10344;47.592;9.600;2022-07-18T10:06:50;29.10;96.90
20370;DHT22;10344;47.592;9.600;2022-07-18T10:09:16;29.80;96.10
20370;DHT22;10344;47.592;9.600;2022-07-18T10:11:42;30.50;94.30
20370;DHT22;10344;47.592;9.600;2022-07-18T10:14:08;30.40;94.20
20370;DHT22;10344;47.592;9.600;2022-07-18T10:16:34;30.20;96.20
20370;DHT22;10344;47.592;9.600;2022-07-18T10:19:00;30.10;94.50
20370;DHT22;10344;47.592;9.600;2022-07-18T10:21:25;30.40;94.20
20370;DHT22;10344;47.592;9.600;2022-07-18T10:23:55;30.40;92.50
20370;DHT22;10344;47.592;9.600;2022-07-18T10:26:22;30.00;93.50
20370;DHT22;10344;47.592;9.600;2022-07-18T10:33:51;29.50;93.50
20370;DHT22;10344;47.592;9.600;2022-07-18T10:41:29;30.10;95.20
20370;DHT22;10344;47.592;9.600;2022-07-18T10:43:56;30.50;93.80
20370;DHT22;10344;47.592;9.600;2022-07-18T10:46:21;31.00;93.50
20370;DHT22;10344;47.592;9.600;2022-07-18T10:48:47;31.20;92.50
20370;DHT22;10344;47.592;9.600;2022-07-18T10:51:13;30.80;94.10
20370;DHT22;10344;47.592;9.600;2022-07-18T10:56:19;29.10;96.30
20370;DHT22;10344;47.592;9.600;2022-07-18T10:58:45;28.70;97.50
20370;DHT22;10344;47.592;9.600;2022-07-18T11:01:13;28.80;96.90
20370;DHT22;10344;47.592;9.600;2022-07-18T11:03:40;28.90;97.10
20370;DHT22;10344;47.592;9.600;2022-07-18T11:06:06;28.80;97.00
20370;DHT22;10344;47.592;9.600;2022-07-18T11:08:34;29.00;95.40
20370;DHT22;10344;47.592;9.600;2022-07-18T11:11:03;29.00;95.90
20370;DHT22;10344;47.592;9.600;2022-07-18T11:13:39;29.10;96.80
20370;DHT22;10344;47.592;9.600;2022-07-18T11:23:41;30.90;95.10
20370;DHT22;10344;47.592;9.600;2022-07-18T11:26:13;30.70;95.80
20370;DHT22;10344;47.592;9.600;2022-07-18T11:28:39;30.90;96.30
20370;DHT22;10344;47.592;9.600;2022-07-18T11:31:08;31.30;96.00
20370;DHT22;10344;47.592;9.600;2022-07-18T11:33:35;31.70;95.60
20370;DHT22;10344;47.592;9.600;2022-07-18T11:36:20;31.90;95.10
20370;DHT22;10344;47.592;9.600;2022-07-18T11:38:49;31.90;94.80
20370;DHT22;10344;47.592;9.600;2022-07-18T11:41:15;32.00;95.50
20370;DHT22;10344;47.592;9.600;2022-07-18T11:43:43;32.60;95.10
20370;DHT22;10344;47.592;9.600;2022-07-18T11:46:12;33.20;93.90
20370;DHT22;10344;47.592;9.600;2022-07-18T11:48:39;33.00;95.20
20370;DHT22;10344;47.592;9.600;2022-07-18T11:51:18;33.40;94.30
20370;DHT22;10344;47.592;9.600;2022-07-18T11:53:51;33.70;93.30
20370;DHT22;10344;47.592;9.600;2022-07-18T11:56:20;33.90;91.40
20370;DHT22;10344;47.592;9.600;2022-07-18T11:58:46;34.30;91.60
20370;DHT22;10344;47.592;9.600;2022-07-18T12:01:13;34.70;90.90
20370;DHT22;10344;47.592;9.600;2022-07-18T12:03:40;35.10;92.00
20370;DHT22;10344;47.592;9.600;2022-07-18T12:06:17;35.40;90.20
20370;DHT22;10344;47.592;9.600;2022-07-18T12:08:43;35.50;90.80
20370;DHT22;10344;47.592;9.600;2022-07-18T12:11:16;35.50;90.80
20370;DHT22;10344;47.592;9.600;2022-07-18T12:13:58;35.40;90.00
20370;DHT22;10344;47.592;9.600;2022-07-18T12:16:25;34.90;91.20
20370;DHT22;10344;47.592;9.600;2022-07-18T12:18:51;34.30;92.00
20370;DHT22;10344;47.592;9.600;2022-07-18T12:21:17;34.10;92.40
20370;DHT22;10344;47.592;9.600;2022-07-18T12:23:42;33.80;91.70
20370;DHT22;10344;47.592;9.600;2022-07-18T12:26:08;33.50;92.40
20370;DHT22;10344;47.592;9.600;2022-07-18T12:28:33;33.70;92.10
20370;DHT22;10344;47.592;9.600;2022-07-18T12:30:59;33.90;91.30
20370;DHT22;10344;47.592;9.600;2022-07-18T12:33:25;33.90;90.80
20370;DHT22;10344;47.592;9.600;2022-07-18T12:35:54;33.70;90.60
20370;DHT22;10344;47.592;9.600;2022-07-18T12:38:21;33.40;91.00
20370;DHT22;10344;47.592;9.600;2022-07-18T12:43:23;33.40;92.30
20370;DHT22;10344;47.592;9.600;2022-07-18T12:45:50;33.40;91.20
20370;DHT22;10344;47.592;9.600;2022-07-18T12:48:18;33.10;90.80
20370;DHT22;10344;47.592;9.600;2022-07-18T12:50:44;32.90;91.50
20370;DHT22;10344;47.592;9.600;2022-07-18T12:53:10;32.80;92.20
20370;DHT22;10344;47.592;9.600;2022-07-18T12:55:36;32.90;91.70
20370;DHT22;10344;47.592;9.600;2022-07-18T12:58:03;33.10;90.40
20370;DHT22;10344;47.592;9.600;2022-07-18T13:00:33;32.80;90.30
20370;DHT22;10344;47.592;9.600;2022-07-18T13:02:58;32.60;89.70
20370;DHT22;10344;47.592;9.600;2022-07-18T13:05:28;32.60;87.50
20370;DHT22;10344;47.592;9.600;2022-07-18T13:07:54;32.80;89.10
20370;DHT22;10344;47.592;9.600;2022-07-18T13:10:19;33.20;88.70
20370;DHT22;10344;47.592;9.600;2022-07-18T13:12:45;33.50;86.70
20370;DHT22;10344;47.592;9.600;2022-07-18T13:15:10;33.60;85.50
20370;DHT22;10344;47.592;9.600;2022-07-18T13:17:36;33.80;86.70
20370;DHT22;10344;47.592;9.600;2022-07-18T13:20:02;34.20;87.40
20370;DHT22;10344;47.592;9.600;2022-07-18T13:22:27;34.60;84.50
20370;DHT22;10344;47.592;9.600;2022-07-18T13:24:54;34.90;82.30
20370;DHT22;10344;47.592;9.600;2022-07-18T13:27:19;35.20;80.20
20370;DHT22;10344;47.592;9.600;2022-07-18T13:29:46;35.40;82.60
20370;DHT22;10344;47.592;9.600;2022-07-18T13:32:12;35.50;77.50
20370;DHT22;10344;47.592;9.600;2022-07-18T13:34:37;35.80;77.90
20370;DHT22;10344;47.592;9.600;2022-07-18T13:37:03;36.20;79.60
20370;DHT22;10344;47.592;9.600;2022-07-18T13:39:28;36.30;76.90
20370;DHT22;10344;47.592;9.600;2022-07-18T13:41:54;36.10;77.00
20370;DHT22;10344;47.592;9.600;2022-07-18T13:44:20;36.00;77.70
20370;DHT22;10344;47.592;9.600;2022-07-18T13:46:46;36.00;76.00
20370;DHT22;10344;47.592;9.600;2022-07-18T13:49:11;35.90;77.00
20370;DHT22;10344;47.592;9.600;2022-07-18T13:51:37;35.50;75.80
20370;DHT22;10344;47.592;9.600;2022-07-18T13:54:05;35.40;77.40
20370;DHT22;10344;47.592;9.600;2022-07-18T13:56:32;35.50;80.10
20370;DHT22;10344;47.592;9.600;2022-07-18T13:58:58;35.70;77.50
20370;DHT22;10344;47.592;9.600;2022-07-18T14:01:23;35.80;73.40
20370;DHT22;10344;47.592;9.600;2022-07-18T14:03:49;36.10;75.90
20370;DHT22;10344;47.592;9.600;2022-07-18T14:06:15;36.00;74.80
20370;DHT22;10344;47.592;9.600;2022-07-18T14:08:43;36.30;74.40
20370;DHT22;10344;47.592;9.600;2022-07-18T14:11:09;36.10;78.00
20370;DHT22;10344;47.592;9.600;2022-07-18T14:13:35;35.70;77.30
20370;DHT22;10344;47.592;9.600;2022-07-18T14:16:00;35.20;79.40
20370;DHT22;10344;47.592;9.600;2022-07-18T14:18:28;34.70;79.40
20370;DHT22;10344;47.592;9.600;2022-07-18T14:20:54;34.60;79.20
20370;DHT22;10344;47.592;9.600;2022-07-18T14:23:20;34.40;77.80
20370;DHT22;10344;47.592;9.600;2022-07-18T14:25:45;34.20;79.20
20370;DHT22;10344;47.592;9.600;2022-07-18T14:28:12;34.30;81.20
20370;DHT22;10344;47.592;9.600;2022-07-18T14:30:39;34.40;78.70
20370;DHT22;10344;47.592;9.600;2022-07-18T14:33:05;34.50;77.10
20370;DHT22;10344;47.592;9.600;2022-07-18T14:35:31;34.70;77.60
20370;DHT22;10344;47.592;9.600;2022-07-18T14:37:56;34.80;78.00
20370;DHT22;10344;47.592;9.600;2022-07-18T14:40:24;35.00;75.30
20370;DHT22;10344;47.592;9.600;2022-07-18T14:42:50;35.10;74.90
20370;DHT22;10344;47.592;9.600;2022-07-18T14:45:16;35.10;75.60
20370;DHT22;10344;47.592;9.600;2022-07-18T14:47:42;34.80;77.10
20370;DHT22;10344;47.592;9.600;2022-07-18T14:50:08;34.80;76.20
20370;DHT22;10344;47.592;9.600;2022-07-18T14:52:35;34.30;76.70
20370;DHT22;10344;47.592;9.600;2022-07-18T14:55:04;33.90;76.60
20370;DHT22;10344;47.592;9.600;2022-07-18T14:57:30;33.70;76.60
20370;DHT22;10344;47.592;9.600;2022-07-18T14:59:58;33.30;79.30
20370;DHT22;10344;47.592;9.600;2022-07-18T15:02:23;33.20;81.00
20370;DHT22;10344;47.592;9.600;2022-07-18T15:04:49;33.40;81.70
20370;DHT22;10344;47.592;9.600;2022-07-18T15:07:15;33.40;81.00
20370;DHT22;10344;47.592;9.600;2022-07-18T15:09:41;33.40;76.60
20370;DHT22;10344;47.592;9.600;2022-07-18T15:12:07;33.70;80.40
20370;DHT22;10344;47.592;9.600;2022-07-18T15:14:34;34.10;78.10
20370;DHT22;10344;47.592;9.600;2022-07-18T15:17:00;34.40;77.20
20370;DHT22;10344;47.592;9.600;2022-07-18T15:19:25;34.50;75.00
20370;DHT22;10344;47.592;9.600;2022-07-18T15:21:51;34.60;76.70
20370;DHT22;10344;47.592;9.600;2022-07-18T15:24:17;34.60;74.80
20370;DHT22;10344;47.592;9.600;2022-07-18T15:26:42;34.70;74.30
20370;DHT22;10344;47.592;9.600;2022-07-18T15:29:09;34.70;77.40
20370;DHT22;10344;47.592;9.600;2022-07-18T15:31:35;34.70;77.40
20370;DHT22;10344;47.592;9.600;2022-07-18T15:34:00;34.70;80.60
20370;DHT22;10344;47.592;9.600;2022-07-18T15:36:28;34.70;78.20
20370;DHT22;10344;47.592;9.600;2022-07-18T15:38:54;34.70;76.10
20370;DHT22;10344;47.592;9.600;2022-07-18T15:41:19;34.70;75.90
20370;DHT22;10344;47.592;9.600;2022-07-18T15:43:47;34.70;71.80
20370;DHT22;10344;47.592;9.600;2022-07-18T15:46:12;34.60;69.60
20370;DHT22;10344;47.592;9.600;2022-07-18T15:48:45;34.40;73.60
20370;DHT22;10344;47.592;9.600;2022-07-18T15:51:11;34.30;73.70
20370;DHT22;10344;47.592;9.600;2022-07-18T15:53:38;34.30;73.40
20370;DHT22;10344;47.592;9.600;2022-07-18T15:56:04;34.10;75.00